| time (UTC) | temp C | wind direction | speed KPH | gust KPH | rain 1hr cm | rain 24hr cm | rain mn cm | humidity % | barometer mb |
| 20260509200848 | 22 | 269 | 6.4 | 14.5 | 0.00 | 0.66 | 0.48 | 54 | 1010.4 |
| 20260509195946 | 22 | 267 | 1.6 | 9.7 | 0.00 | 0.66 | 0.48 | 51 | 1010.5 |
| 20260509194947 | 22 | 256 | 11.3 | 16.1 | 0.00 | 0.66 | 0.48 | 53 | 1010.7 |
| 20260509193947 | 22 | 252 | 8.0 | 12.9 | 0.00 | 0.66 | 0.48 | 53 | 1010.5 |
| 20260509192949 | 22 | 199 | 8.0 | 12.9 | 0.00 | 0.66 | 0.48 | 54 | 1010.7 |
| 20260509191046 | 21 | 254 | 8.0 | 12.9 | 0.00 | 0.66 | 0.48 | 57 | 1010.8 |
| 20260509190048 | 21 | 207 | 6.4 | 12.9 | 0.00 | 0.66 | 0.48 | 57 | 1010.9 |
| 20260509185048 | 21 | 266 | 4.8 | 12.9 | 0.00 | 0.66 | 0.48 | 58 | 1010.9 |
| 20260509184146 | 21 | 255 | 4.8 | 9.7 | 0.00 | 0.66 | 0.48 | 59 | 1011.0 |
| 20260509183147 | 21 | 233 | 3.2 | 9.7 | 0.00 | 0.66 | 0.48 | 62 | 1011.0 |
| 20260509182147 | 21 | 263 | 6.4 | 11.3 | 0.00 | 0.66 | 0.48 | 62 | 1010.9 |
| 20260509180147 | 21 | 239 | 4.8 | 8.0 | 0.00 | 0.66 | 0.48 | 62 | 1011.2 |
| 20260509175148 | 20 | 210 | 3.2 | 8.0 | 0.00 | 0.66 | 0.48 | 63 | 1011.4 |
| 20260509174149 | 20 | 271 | 4.8 | 8.0 | 0.00 | 0.66 | 0.48 | 64 | 1011.4 |
| 20260509173247 | 20 | 287 | 4.8 | 12.9 | 0.00 | 0.66 | 0.48 | 64 | 1011.6 |
| 20260509172248 | 20 | 256 | 8.0 | 9.7 | 0.00 | 0.66 | 0.48 | 64 | 1011.4 |
| 20260509171247 | 20 | 250 | 8.0 | 14.5 | 0.00 | 0.66 | 0.48 | 64 | 1011.6 |
| 20260509170346 | 20 | 270 | 6.4 | 8.0 | 0.00 | 0.66 | 0.48 | 66 | 1011.6 |
| 20260509165348 | 20 | 277 | 4.8 | 9.7 | 0.00 | 0.66 | 0.48 | 66 | 1011.6 |
| 20260509164348 | 19 | 225 | 0.0 | 3.2 | 0.00 | 0.66 | 0.48 | 67 | 1011.6 |
| 20260509162446 | 19 | 244 | 9.7 | 12.9 | 0.00 | 0.66 | 0.48 | 67 | 1011.5 |
| 20260509161449 | 18 | 291 | 1.6 | 4.8 | 0.00 | 0.66 | 0.48 | 68 | 1011.5 |
| 20260509155647 | 18 | 273 | 8.0 | 12.9 | 0.00 | 0.66 | 0.48 | 68 | 1011.3 |
| 20260509154648 | 18 | 270 | 4.8 | 6.4 | 0.00 | 0.66 | 0.48 | 70 | 1011.2 |
| 20260509153647 | 18 | 242 | 6.4 | 8.0 | 0.00 | 0.66 | 0.48 | 70 | 1011.4 |
| 20260509151648 | 18 | 261 | 6.4 | 9.7 | 0.00 | 0.66 | 0.48 | 72 | 1011.2 |
| 20260509145648 | 18 | 222 | 4.8 | 6.4 | 0.00 | 0.66 | 0.48 | 75 | 1011.1 |
| 20260509145550 | 18 | 227 | 3.2 | 9.7 | 0.00 | 0.66 | 0.48 | 75 | 1011.0 |
| 20260509144646 | 18 | 257 | 4.8 | 6.4 | 0.00 | 0.66 | 0.48 | 79 | 1011.1 |
| 20260509143648 | 18 | 210 | 3.2 | 4.8 | 0.00 | 0.66 | 0.48 | 81 | 1011.3 |
| 20260509142648 | 18 | 218 | 3.2 | 4.8 | 0.00 | 0.66 | 0.48 | 84 | 1011.2 |
| 20260509141647 | 18 | 190 | 0.0 | 1.6 | 0.00 | 0.66 | 0.48 | 89 | 1011.0 |
| 20260509140647 | 17 | 232 | 0.0 | 6.4 | 0.00 | 0.66 | 0.48 | 89 | 1011.2 |
| 20260509135746 | 16 | 247 | 1.6 | 3.2 | 0.00 | 0.66 | 0.48 | 91 | 1011.0 |
| 20260509134745 | 16 | 193 | 3.2 | 4.8 | 0.00 | 0.66 | 0.48 | 94 | 1011.0 |
| 20260509133749 | 15 | 184 | 6.4 | 9.7 | 0.00 | 0.66 | 0.48 | 96 | 1010.9 |
| 20260509132847 | 15 | 190 | 6.4 | 9.7 | 0.00 | 0.66 | 0.48 | 98 | 1010.9 |
| 20260509131847 | 14 | 188 | 3.2 | 6.4 | 0.00 | 0.66 | 0.48 | 98 | 1010.8 |
| 20260509130946 | 13 | 213 | 1.6 | 3.2 | 0.00 | 0.66 | 0.48 | 99 | 1010.9 |
| 20260509125948 | 13 | 175 | 3.2 | 6.4 | 0.00 | 0.66 | 0.48 | 99 | 1010.9 |
| 20260509124948 | 13 | 172 | 3.2 | 6.4 | 0.00 | 0.66 | 0.48 | 98 | 1010.9 |
| 20260509123949 | 13 | 180 | 3.2 | 4.8 | 0.00 | 0.66 | 0.48 | 98 | 1010.9 |
| 20260509122949 | 13 | 175 | 3.2 | 6.4 | 0.00 | 0.66 | 0.48 | 99 | 1010.9 |
| 20260509122047 | 12 | 180 | 0.0 | 1.6 | 0.00 | 0.66 | 0.48 | 99 | 1010.9 |
| 20260509121049 | 12 | 202 | 3.2 | 4.8 | 0.00 | 0.66 | 0.48 | 99 | 1010.7 |
| 20260509120047 | 12 | 202 | 0.0 | 1.6 | 0.00 | 0.66 | 0.48 | 99 | 1010.5 |
| 20260509115046 | 12 | 202 | 0.0 | 0.0 | 0.00 | 0.66 | 0.48 | 99 | 1010.4 |
| 20260509114945 | 12 | 202 | 0.0 | 0.0 | 0.00 | 0.66 | 0.48 | 99 | 1010.4 |
| 20260509113948 | 12 | 199 | 3.2 | 4.8 | 0.00 | 0.66 | 0.48 | 99 | 1010.1 |
| 20260509112948 | 12 | 202 | 0.0 | 1.6 | 0.00 | 0.66 | 0.48 | 98 | 1010.1 |
| 20260509110948 | 12 | 157 | 0.0 | 0.0 | 0.00 | 0.66 | 0.48 | 99 | 1009.9 |
| 20260509105949 | 12 | 157 | 0.0 | 0.0 | 0.00 | 0.66 | 0.48 | 99 | 1009.7 |
| 20260509104946 | 12 | 157 | 0.0 | 0.0 | 0.00 | 0.66 | 0.48 | 99 | 1009.5 |
| 20260509103949 | 12 | 150 | 1.6 | 3.2 | 0.00 | 0.66 | 0.48 | 99 | 1009.5 |
| 20260509100047 | 12 | 181 | 4.8 | 8.0 | 0.00 | 0.66 | 0.48 | 98 | 1009.7 |
| 20260509095049 | 12 | 182 | 3.2 | 6.4 | 0.00 | 0.66 | 0.48 | 97 | 1009.9 |
| 20260509094947 | 12 | 195 | 3.2 | 6.4 | 0.00 | 0.66 | 0.48 | 97 | 1009.9 |
| 20260509093947 | 12 | 157 | 1.6 | 6.4 | 0.03 | 0.66 | 0.48 | 98 | 1009.9 |
| 20260509092947 | 12 | 180 | 1.6 | 4.8 | 0.08 | 0.66 | 0.48 | 97 | 1010.1 |
| 20260509091947 | 12 | 45 | 0.0 | 0.0 | 0.08 | 0.66 | 0.48 | 98 | 1009.8 |
| 20260509090947 | 12 | 5 | 3.2 | 4.8 | 0.13 | 0.66 | 0.48 | 98 | 1009.8 |
| 20260509085949 | 12 | 86 | 1.6 | 4.8 | 0.15 | 0.66 | 0.48 | 98 | 1010.0 |
| 20260509085845 | 12 | 80 | 4.8 | 6.4 | 0.15 | 0.66 | 0.48 | 97 | 1010.1 |
| 20260509084845 | 12 | 133 | 3.2 | 6.4 | 0.20 | 0.66 | 0.46 | 98 | 1010.4 |
| 20260509083905 | 12 | 123 | 0.0 | 3.2 | 0.18 | 0.64 | 0.43 | 96 | 1010.8 |
| 20260509083748 | 12 | 135 | 3.2 | 4.8 | 0.18 | 0.61 | 0.43 | 97 | 1010.8 |
| 20260509082746 | 12 | 95 | 0.0 | 0.0 | 0.18 | 0.58 | 0.41 | 96 | 1010.8 |
| 20260509080848 | 12 | 157 | 0.0 | 0.0 | 0.18 | 0.53 | 0.33 | 97 | 1010.9 |
| 20260509075849 | 12 | 157 | 0.0 | 1.6 | 0.15 | 0.51 | 0.33 | 97 | 1010.9 |
| 20260509074848 | 12 | 90 | 0.0 | 1.6 | 0.15 | 0.46 | 0.28 | 97 | 1010.7 |
| 20260509072949 | 12 | 90 | 0.0 | 0.0 | 0.15 | 0.41 | 0.23 | 97 | 1010.9 |
| 20260509071948 | 12 | 90 | 0.0 | 1.6 | 0.15 | 0.38 | 0.20 | 97 | 1010.9 |
| 20260509065946 | 12 | 90 | 0.0 | 0.0 | 0.15 | 0.36 | 0.18 | 97 | 1011.0 |
| 20260509065045 | 12 | 90 | 0.0 | 0.0 | 0.10 | 0.30 | 0.13 | 97 | 1011.6 |
| 20260509064046 | 12 | 90 | 0.0 | 0.0 | 0.08 | 0.28 | 0.10 | 96 | 1011.6 |
| 20260509063947 | 12 | 90 | 0.0 | 0.0 | 0.08 | 0.28 | 0.10 | 96 | 1011.6 |
| 20260509062947 | 12 | 337 | 0.0 | 0.0 | 0.05 | 0.25 | 0.08 | 96 | 1011.6 |
| 20260509061948 | 12 | 337 | 0.0 | 0.0 | 0.03 | 0.23 | 0.05 | 95 | 1011.7 |
| 20260509060949 | 12 | 112 | 0.0 | 0.0 | 0.00 | 0.20 | 0.03 | 96 | 1011.6 |
| 20260509055946 | 12 | 90 | 0.0 | 0.0 | 0.00 | 0.20 | 0.03 | 96 | 1011.5 |
| 20260509054949 | 12 | 90 | 0.0 | 0.0 | 0.00 | 0.20 | 0.03 | 95 | 1011.6 |
| 20260509054045 | 12 | 90 | 0.0 | 0.0 | 0.00 | 0.20 | 0.03 | 96 | 1011.6 |
| 20260509053046 | 12 | 90 | 0.0 | 0.0 | 0.03 | 0.20 | 0.03 | 96 | 1011.7 |
| 20260509052047 | 12 | 90 | 0.0 | 0.0 | 0.03 | 0.20 | 0.03 | 95 | 1011.6 |
| 20260509051048 | 12 | 37 | 1.6 | 3.2 | 0.03 | 0.20 | 0.03 | 95 | 1011.8 |
| 20260509050048 | 12 | 357 | 4.8 | 6.4 | 0.03 | 0.20 | 0.03 | 96 | 1011.8 |
| 20260509045145 | 12 | 31 | 3.2 | 6.4 | 0.03 | 0.20 | 0.03 | 95 | 1011.7 |
| 20260509043149 | 12 | 62 | 1.6 | 4.8 | 0.00 | 0.18 | 0.00 | 96 | 1011.7 |
| 20260509042245 | 13 | 35 | 1.6 | 3.2 | 0.00 | 0.18 | 0.00 | 95 | 1011.6 |
| 20260509041246 | 13 | 29 | 3.2 | 4.8 | 0.00 | 0.18 | 0.00 | 95 | 1011.6 |
| 20260509040247 | 13 | 22 | 4.8 | 4.8 | 0.00 | 0.18 | 0.00 | 95 | 1011.7 |
| 20260509034329 | 13 | 22 | 3.2 | 4.8 | 0.00 | 0.18 | 0.18 | 95 | 1011.8 |
| 20260509033330 | 13 | 17 | 3.2 | 4.8 | 0.03 | 0.18 | 0.18 | 94 | 1011.6 |
| 20260509031332 | 13 | 24 | 4.8 | 8.0 | 0.05 | 0.18 | 0.18 | 93 | 1011.7 |
| 20260509030329 | 13 | 53 | 1.6 | 6.4 | 0.05 | 0.18 | 0.18 | 94 | 1011.7 |
| 20260509024330 | 13 | 28 | 1.6 | 4.8 | 0.08 | 0.18 | 0.18 | 92 | 1011.6 |
| 20260509023329 | 13 | 348 | 4.8 | 6.4 | 0.08 | 0.15 | 0.15 | 91 | 1012.0 |
| 20260509021428 | 13 | 135 | 0.0 | 0.0 | 0.08 | 0.13 | 0.13 | 89 | 1011.8 |
| 20260509020429 | 13 | 135 | 0.0 | 0.0 | 0.10 | 0.13 | 0.13 | 90 | 1011.8 |
| 20260509015429 | 13 | 135 | 0.0 | 1.6 | 0.10 | 0.10 | 0.10 | 89 | 1011.6 |
| 20260509014528 | 13 | 29 | 0.0 | 3.2 | 0.10 | 0.10 | 0.10 | 88 | 1011.8 |
| 20260509013530 | 13 | 45 | 0.0 | 0.0 | 0.08 | 0.08 | 0.08 | 88 | 1011.6 |
| 20260509012530 | 13 | 34 | 1.6 | 6.4 | 0.08 | 0.08 | 0.08 | 88 | 1011.7 |
| 20260509011530 | 14 | 352 | 6.4 | 9.7 | 0.05 | 0.05 | 0.05 | 84 | 1011.8 |
| 20260509010628 | 15 | 349 | 9.7 | 16.1 | 0.03 | 0.03 | 0.03 | 78 | 1011.9 |
| 20260509005631 | 16 | 4 | 16.1 | 22.5 | 0.03 | 0.03 | 0.03 | 64 | 1011.9 |
| 20260509004631 | 18 | 350 | 9.7 | 17.7 | 0.00 | 0.00 | 0.00 | 51 | 1011.8 |
| 20260509003729 | 18 | 269 | 4.8 | 6.4 | 0.00 | 0.00 | 0.00 | 50 | 1011.0 |
| 20260509003628 | 18 | 204 | 0.0 | 1.6 | 0.00 | 0.00 | 0.00 | 50 | 1011.0 |
| 20260509002631 | 18 | 199 | 3.2 | 6.4 | 0.00 | 0.00 | 0.00 | 50 | 1010.9 |
| 20260509001630 | 18 | 225 | 0.0 | 1.6 | 0.00 | 0.00 | 0.00 | 51 | 1010.9 |
| 20260509000631 | 19 | 212 | 1.6 | 3.2 | 0.00 | 0.00 | 0.00 | 51 | 1010.9 |
| 20260508235729 | 19 | 202 | 1.6 | 3.2 | 0.00 | 0.00 | 0.00 | 51 | 1011.0 |
| 20260508234729 | 19 | 225 | 1.6 | 3.2 | 0.00 | 0.00 | 0.00 | 50 | 1010.9 |
| 20260508233729 | 19 | 225 | 0.0 | 1.6 | 0.00 | 0.00 | 0.00 | 49 | 1011.0 |
| 20260508232730 | 20 | 251 | 3.2 | 3.2 | 0.00 | 0.00 | 0.00 | 48 | 1011.0 |
| 20260508231729 | 20 | 254 | 3.2 | 6.4 | 0.00 | 0.00 | 0.00 | 48 | 1011.2 |
| 20260508230828 | 20 | 249 | 6.4 | 9.7 | 0.00 | 0.00 | 0.00 | 47 | 1011.1 |
| 20260508225830 | 20 | 226 | 4.8 | 8.0 | 0.00 | 0.00 | 0.00 | 48 | 1011.2 |
| 20260508224830 | 20 | 223 | 3.2 | 4.8 | 0.00 | 0.00 | 0.00 | 47 | 1011.5 |
| 20260508221929 | 20 | 243 | 6.4 | 12.9 | 0.00 | 0.00 | 0.00 | 45 | 1011.3 |
| 20260508220931 | 20 | 252 | 8.0 | 14.5 | 0.00 | 0.00 | 0.00 | 45 | 1011.2 |
| 20260508220028 | 20 | 230 | 4.8 | 8.0 | 0.00 | 0.00 | 0.00 | 47 | 1011.3 |
| 20260508215030 | 20 | 240 | 6.4 | 12.9 | 0.00 | 0.00 | 0.00 | 46 | 1011.4 |
| 20260508213029 | 20 | 239 | 6.4 | 14.5 | 0.00 | 0.00 | 0.00 | 46 | 1011.5 |
| 20260508212128 | 20 | 254 | 8.0 | 11.3 | 0.00 | 0.00 | 0.00 | 45 | 1011.5 |
| 20260508211131 | 20 | 264 | 4.8 | 8.0 | 0.00 | 0.00 | 0.00 | 45 | 1011.2 |
| 20260508205130 | 20 | 240 | 8.0 | 12.9 | 0.00 | 0.00 | 0.00 | 46 | 1011.5 |
| 20260508204129 | 20 | 254 | 3.2 | 6.4 | 0.00 | 0.00 | 0.00 | 45 | 1011.5 |
| 20260508203131 | 20 | 225 | 4.8 | 6.4 | 0.00 | 0.00 | 0.00 | 44 | 1011.8 |
| 20260508202229 | 20 | 262 | 4.8 | 8.0 | 0.00 | 0.00 | 0.00 | 44 | 1011.9 |
| 20260508201230 | 21 | 247 | 9.7 | 16.1 | 0.00 | 0.00 | 0.00 | 43 | 1011.9 |